Blue Galaxy — SWDA — position and weather

sailwx.info

Track history (hours):
 
Tides and Currents Weather Stations Pressure Air Temp Water Temp Dewpoint Dewpoint Depression Visibility Wind Speed Wind Dir Waves Ship Positions

Blue Galaxy

Last reported at 2016-Jun-25 11:33 UTC. Time now 2016-Jun-25 12:25 UTC.
Position N 37°57' E 023°38'.

Length 192 m; draft 6.7 m.

Type: Passenger vessel. MMSI: 239672000.

Date/timePositionNaut miles runAvg speedWind from/ knotsBaromVisibWave heightAir tempDewpointWater temp
2016-Jun-25 11:33N 37°57' E 023°38'0 0.0
2016-Jun-25 10:33N 37°57' E 023°38'0 0.0
2016-Jun-25 09:33N 37°57' E 023°38'0 0.0
2016-Jun-25 08:33N 37°57' E 023°38'0 0.0
2016-Jun-25 07:33N 37°57' E 023°38'0 0.0
2016-Jun-25 06:33N 37°57' E 023°38'0 0.0
2016-Jun-25 05:33N 37°57' E 023°38'0 0.0
2016-Jun-25 04:33N 37°57' E 023°38'0 0.0
2016-Jun-25 03:33N 37°57' E 023°38'0 0.0
2016-Jun-25 02:33N 37°57' E 023°38'1110.8
2016-Jun-25 01:34N 37°47' E 023°42'2019.7
2016-Jun-25 00:33N 37°27' E 023°49'6 0.2
2016-Jun-23 20:30N 37°22' E 023°47'2021.5
2016-Jun-23 19:33N 37°41' E 023°41'1615.8
2016-Jun-23 18:33N 37°57' E 023°38'0 0.0
2016-Jun-23 17:33N 37°57' E 023°38'0 0.0
2016-Jun-23 16:33N 37°57' E 023°38'0 0.0
2016-Jun-23 15:33N 37°57' E 023°38'0 0.0
2016-Jun-23 14:33N 37°57' E 023°38'0 0.0
2016-Jun-23 13:33N 37°57' E 023°38'0 0.0
2016-Jun-23 12:33N 37°57' E 023°38'0 0.0
2016-Jun-23 11:33N 37°57' E 023°38'0 0.0
2016-Jun-23 10:33N 37°57' E 023°38'0 0.0
2016-Jun-23 09:33N 37°57' E 023°38'0 0.0
2016-Jun-23 08:33N 37°57' E 023°38'0 0.0
2016-Jun-23 07:34N 37°57' E 023°38'0 0.0
2016-Jun-23 05:33N 37°57' E 023°38'0 0.0
2016-Jun-23 04:33N 37°57' E 023°38'0 0.0
2016-Jun-23 03:34N 37°57' E 023°38'0 0.1
2016-Jun-23 02:34N 37°57' E 023°38'1312.6
2016-Jun-23 01:34N 37°45' E 023°44'2019.8
2016-Jun-23 00:33N 37°25' E 023°49'12 0.4
2016-Jun-21 20:33N 37°14' E 023°49'2020.1
2016-Jun-21 19:33N 37°34' E 023°44'1919.6
2016-Jun-21 18:34N 37°52' E 023°37'5 4.7
2016-Jun-21 17:33N 37°57' E 023°38'0 0.0
2016-Jun-21 16:33N 37°57' E 023°38'0 0.0
2016-Jun-21 15:33N 37°57' E 023°38'0 0.0
2016-Jun-21 14:33N 37°57' E 023°38'0 0.0
2016-Jun-21 13:33N 37°57' E 023°38'0 0.0
2016-Jun-21 12:34N 37°57' E 023°38'0 0.0
2016-Jun-21 11:34N 37°57' E 023°38'0 0.0
2016-Jun-21 10:33N 37°57' E 023°38'0 0.0
2016-Jun-21 09:33N 37°57' E 023°38'0 0.0
2016-Jun-21 08:33N 37°57' E 023°38'0 0.0
2016-Jun-21 07:34N 37°57' E 023°38'0 0.0
2016-Jun-21 05:34N 37°57' E 023°38'0 0.0
2016-Jun-21 04:33N 37°57' E 023°38'0 0.0
2016-Jun-21 03:33N 37°57' E 023°38'0 0.0
2016-Jun-21 02:33N 37°57' E 023°38'10 9.9
2016-Jun-21 01:33N 37°47' E 023°42'2019.7
2016-Jun-21 00:33N 37°28' E 023°48'2019.6
2016-Jun-20 23:32N 37°09' E 023°53'2219.6
2016-Jun-20 22:25N 36°47' E 023°58'1719.7
2016-Jun-20 21:33N 36°30' E 024°01'2019.8
2016-Jun-20 20:33N 36°11' E 024°05'45 1.9
2016-Jun-19 21:33N 36°55' E 023°55'2020.1
2016-Jun-19 20:33N 37°14' E 023°49'2019.8
2016-Jun-19 19:33N 37°34' E 023°44'2020.0
2016-Jun-19 18:33N 37°53' E 023°37'4 4.5
2016-Jun-19 17:33N 37°57' E 023°38'0 0.0
2016-Jun-19 16:33N 37°57' E 023°38'0 0.0
2016-Jun-19 15:33N 37°57' E 023°38'0 0.0
2016-Jun-19 14:33N 37°57' E 023°38'0 0.0
2016-Jun-19 13:33N 37°57' E 023°38'0 0.0
2016-Jun-19 12:33N 37°57' E 023°38'0 0.0
2016-Jun-19 11:34N 37°57' E 023°38'0 0.0
2016-Jun-19 10:33N 37°57' E 023°38'0 0.0
2016-Jun-19 09:33N 37°57' E 023°38'0 0.0
2016-Jun-19 08:33N 37°57' E 023°38'0 0.0
2016-Jun-19 07:33N 37°57' E 023°38'0 0.0
2016-Jun-19 06:33N 37°57' E 023°38'0 0.0
2016-Jun-19 05:33N 37°57' E 023°38'0 0.0
2016-Jun-19 04:33N 37°57' E 023°38'0 0.0
2016-Jun-19 03:33N 37°57' E 023°38'0 0.0
2016-Jun-19 02:33N 37°57' E 023°38'10 9.7
2016-Jun-19 01:34N 37°48' E 023°42'2019.7
2016-Jun-19 00:34N 37°29' E 023°49'2019.7
2016-Jun-18 23:33N 37°09' E 023°53'22 0.9
2016-Jun-17 22:17N 36°47' E 023°57'1620.5
2016-Jun-17 21:32N 37°02' E 023°53'2020.8
2016-Jun-17 20:34N 37°22' E 023°47'2020.3
2016-Jun-17 19:33N 37°41' E 023°41'1615.7
2016-Jun-17 18:34N 37°57' E 023°38'0 0.0
2016-Jun-17 17:34N 37°57' E 023°38'0 0.0
2016-Jun-17 16:33N 37°57' E 023°38'0 0.0
2016-Jun-17 15:33N 37°57' E 023°38'0 0.0
2016-Jun-17 14:34N 37°57' E 023°38'0 0.0
2016-Jun-17 13:34N 37°57' E 023°38'0 0.0
2016-Jun-17 12:34N 37°57' E 023°38'0 0.0
2016-Jun-17 11:34N 37°57' E 023°38'0 0.0
2016-Jun-17 10:34N 37°57' E 023°38'0 0.0
2016-Jun-17 09:34N 37°57' E 023°38'0 0.0
2016-Jun-17 08:34N 37°57' E 023°38'0 0.0
2016-Jun-17 07:34N 37°57' E 023°38'0 0.0
2016-Jun-17 06:34N 37°57' E 023°38'0 0.0
2016-Jun-17 05:34N 37°57' E 023°38'0 0.0
2016-Jun-17 04:34N 37°57' E 023°38'0 0.0
2016-Jun-17 03:34N 37°57' E 023°38'0 0.5
2016-Jun-17 02:33N 37°56' E 023°38'1817.5
2016-Jun-17 01:33N 37°40' E 023°46'2019.8
2016-Jun-17 00:34N 37°21' E 023°51'2019.6
2016-Jun-16 23:33N 37°01' E 023°54'29 2.3
2016-Jun-16 10:33N 37°30' E 023°45'2222.3
2016-Jun-16 09:34N 37°50' E 023°36'6 6.1
2016-Jun-16 08:33N 37°56' E 023°38'0 0.0
2016-Jun-16 07:33N 37°56' E 023°38'0 0.0
2016-Jun-16 06:33N 37°56' E 023°38'0 0.0
2016-Jun-16 05:33N 37°56' E 023°38'0 0.0
2016-Jun-16 04:33N 37°56' E 023°38'0 0.0
2016-Jun-16 03:33N 37°56' E 023°38'0 0.0
2016-Jun-16 02:33N 37°56' E 023°38'0 0.0
2016-Jun-16 01:33N 37°56' E 023°38'0 0.0
2016-Jun-16 00:33N 37°56' E 023°38'0 0.0
2016-Jun-15 23:33N 37°56' E 023°38'0 0.0
2016-Jun-15 22:33N 37°56' E 023°38'0 0.0
2016-Jun-15 21:33N 37°56' E 023°38'0 0.0
2016-Jun-15 20:33N 37°56' E 023°38'0 0.0
2016-Jun-15 19:33N 37°56' E 023°38'0 0.0
2016-Jun-15 18:33N 37°56' E 023°38'0 0.0
2016-Jun-15 17:33N 37°56' E 023°38'0 0.0
2016-Jun-15 16:33N 37°56' E 023°38'0 0.0
2016-Jun-15 15:33N 37°56' E 023°38'0 0.0
2016-Jun-15 14:33N 37°56' E 023°38'0 0.0
2016-Jun-15 13:33N 37°56' E 023°38'0 0.0
2016-Jun-15 12:33N 37°56' E 023°38'  
Track history (hours):
 
Tides and Currents Weather Stations Pressure Air Temp Water Temp Dewpoint Dewpoint Depression Visibility Wind Speed Wind Dir Waves Ship Positions

Blue Galaxy

Last reported at 2016-Jun-25 11:33 UTC. Time now 2016-Jun-25 12:25 UTC.
Position N 37°57' E 023°38'.

Length 192 m; draft 6.7 m.

Type: Passenger vessel. MMSI: 239672000.

Date/timePositionNaut miles runAvg speedWind from/ knotsBaromVisibWave heightAir tempDewpointWater temp
2016-Jun-25 11:33N 37°57' E 023°38'0 0.0
2016-Jun-25 10:33N 37°57' E 023°38'0 0.0
2016-Jun-25 09:33N 37°57' E 023°38'0 0.0
2016-Jun-25 08:33N 37°57' E 023°38'0 0.0
2016-Jun-25 07:33N 37°57' E 023°38'0 0.0
2016-Jun-25 06:33N 37°57' E 023°38'0 0.0
2016-Jun-25 05:33N 37°57' E 023°38'0 0.0
2016-Jun-25 04:33N 37°57' E 023°38'0 0.0
2016-Jun-25 03:33N 37°57' E 023°38'0 0.0
2016-Jun-25 02:33N 37°57' E 023°38'1110.8
2016-Jun-25 01:34N 37°47' E 023°42'2019.7
2016-Jun-25 00:33N 37°27' E 023°49'6 0.2
2016-Jun-23 20:30N 37°22' E 023°47'2021.5
2016-Jun-23 19:33N 37°41' E 023°41'1615.8
2016-Jun-23 18:33N 37°57' E 023°38'0 0.0
2016-Jun-23 17:33N 37°57' E 023°38'0 0.0
2016-Jun-23 16:33N 37°57' E 023°38'0 0.0
2016-Jun-23 15:33N 37°57' E 023°38'0 0.0
2016-Jun-23 14:33N 37°57' E 023°38'0 0.0
2016-Jun-23 13:33N 37°57' E 023°38'0 0.0
2016-Jun-23 12:33N 37°57' E 023°38'0 0.0
2016-Jun-23 11:33N 37°57' E 023°38'0 0.0
2016-Jun-23 10:33N 37°57' E 023°38'0 0.0
2016-Jun-23 09:33N 37°57' E 023°38'0 0.0
2016-Jun-23 08:33N 37°57' E 023°38'0 0.0
2016-Jun-23 07:34N 37°57' E 023°38'0 0.0
2016-Jun-23 05:33N 37°57' E 023°38'0 0.0
2016-Jun-23 04:33N 37°57' E 023°38'0 0.0
2016-Jun-23 03:34N 37°57' E 023°38'0 0.1
2016-Jun-23 02:34N 37°57' E 023°38'1312.6
2016-Jun-23 01:34N 37°45' E 023°44'2019.8
2016-Jun-23 00:33N 37°25' E 023°49'12 0.4
2016-Jun-21 20:33N 37°14' E 023°49'2020.1
2016-Jun-21 19:33N 37°34' E 023°44'1919.6
2016-Jun-21 18:34N 37°52' E 023°37'5 4.7
2016-Jun-21 17:33N 37°57' E 023°38'0 0.0
2016-Jun-21 16:33N 37°57' E 023°38'0 0.0
2016-Jun-21 15:33N 37°57' E 023°38'0 0.0
2016-Jun-21 14:33N 37°57' E 023°38'0 0.0
2016-Jun-21 13:33N 37°57' E 023°38'0 0.0
2016-Jun-21 12:34N 37°57' E 023°38'0 0.0
2016-Jun-21 11:34N 37°57' E 023°38'0 0.0
2016-Jun-21 10:33N 37°57' E 023°38'0 0.0
2016-Jun-21 09:33N 37°57' E 023°38'0 0.0
2016-Jun-21 08:33N 37°57' E 023°38'0 0.0
2016-Jun-21 07:34N 37°57' E 023°38'0 0.0
2016-Jun-21 05:34N 37°57' E 023°38'0 0.0
2016-Jun-21 04:33N 37°57' E 023°38'0 0.0
2016-Jun-21 03:33N 37°57' E 023°38'0 0.0
2016-Jun-21 02:33N 37°57' E 023°38'10 9.9
2016-Jun-21 01:33N 37°47' E 023°42'2019.7
2016-Jun-21 00:33N 37°28' E 023°48'2019.6
2016-Jun-20 23:32N 37°09' E 023°53'2219.6
2016-Jun-20 22:25N 36°47' E 023°58'1719.7
2016-Jun-20 21:33N 36°30' E 024°01'2019.8
2016-Jun-20 20:33N 36°11' E 024°05'45 1.9
2016-Jun-19 21:33N 36°55' E 023°55'2020.1
2016-Jun-19 20:33N 37°14' E 023°49'2019.8
2016-Jun-19 19:33N 37°34' E 023°44'2020.0
2016-Jun-19 18:33N 37°53' E 023°37'4 4.5
2016-Jun-19 17:33N 37°57' E 023°38'0 0.0
2016-Jun-19 16:33N 37°57' E 023°38'0 0.0
2016-Jun-19 15:33N 37°57' E 023°38'0 0.0
2016-Jun-19 14:33N 37°57' E 023°38'0 0.0
2016-Jun-19 13:33N 37°57' E 023°38'0 0.0
2016-Jun-19 12:33N 37°57' E 023°38'0 0.0
2016-Jun-19 11:34N 37°57' E 023°38'0 0.0
2016-Jun-19 10:33N 37°57' E 023°38'0 0.0
2016-Jun-19 09:33N 37°57' E 023°38'0 0.0
2016-Jun-19 08:33N 37°57' E 023°38'0 0.0
2016-Jun-19 07:33N 37°57' E 023°38'0 0.0
2016-Jun-19 06:33N 37°57' E 023°38'0 0.0
2016-Jun-19 05:33N 37°57' E 023°38'0 0.0
2016-Jun-19 04:33N 37°57' E 023°38'0 0.0
2016-Jun-19 03:33N 37°57' E 023°38'0 0.0
2016-Jun-19 02:33N 37°57' E 023°38'10 9.7
2016-Jun-19 01:34N 37°48' E 023°42'2019.7
2016-Jun-19 00:34N 37°29' E 023°49'2019.7
2016-Jun-18 23:33N 37°09' E 023°53'22 0.9
2016-Jun-17 22:17N 36°47' E 023°57'1620.5
2016-Jun-17 21:32N 37°02' E 023°53'2020.8
2016-Jun-17 20:34N 37°22' E 023°47'2020.3
2016-Jun-17 19:33N 37°41' E 023°41'1615.7
2016-Jun-17 18:34N 37°57' E 023°38'0 0.0
2016-Jun-17 17:34N 37°57' E 023°38'0 0.0
2016-Jun-17 16:33N 37°57' E 023°38'0 0.0
2016-Jun-17 15:33N 37°57' E 023°38'0 0.0
2016-Jun-17 14:34N 37°57' E 023°38'0 0.0
2016-Jun-17 13:34N 37°57' E 023°38'0 0.0
2016-Jun-17 12:34N 37°57' E 023°38'0 0.0
2016-Jun-17 11:34N 37°57' E 023°38'0 0.0
2016-Jun-17 10:34N 37°57' E 023°38'0 0.0
2016-Jun-17 09:34N 37°57' E 023°38'0 0.0
2016-Jun-17 08:34N 37°57' E 023°38'0 0.0
2016-Jun-17 07:34N 37°57' E 023°38'0 0.0
2016-Jun-17 06:34N 37°57' E 023°38'0 0.0
2016-Jun-17 05:34N 37°57' E 023°38'0 0.0
2016-Jun-17 04:34N 37°57' E 023°38'0 0.0
2016-Jun-17 03:34N 37°57' E 023°38'0 0.5
2016-Jun-17 02:33N 37°56' E 023°38'1817.5
2016-Jun-17 01:33N 37°40' E 023°46'2019.8
2016-Jun-17 00:34N 37°21' E 023°51'2019.6
2016-Jun-16 23:33N 37°01' E 023°54'29 2.3
2016-Jun-16 10:33N 37°30' E 023°45'2222.3
2016-Jun-16 09:34N 37°50' E 023°36'6 6.1
2016-Jun-16 08:33N 37°56' E 023°38'0 0.0
2016-Jun-16 07:33N 37°56' E 023°38'0 0.0
2016-Jun-16 06:33N 37°56' E 023°38'0 0.0
2016-Jun-16 05:33N 37°56' E 023°38'0 0.0
2016-Jun-16 04:33N 37°56' E 023°38'0 0.0
2016-Jun-16 03:33N 37°56' E 023°38'0 0.0
2016-Jun-16 02:33N 37°56' E 023°38'0 0.0
2016-Jun-16 01:33N 37°56' E 023°38'0 0.0
2016-Jun-16 00:33N 37°56' E 023°38'0 0.0
2016-Jun-15 23:33N 37°56' E 023°38'0 0.0
2016-Jun-15 22:33N 37°56' E 023°38'0 0.0
2016-Jun-15 21:33N 37°56' E 023°38'0 0.0
2016-Jun-15 20:33N 37°56' E 023°38'0 0.0
2016-Jun-15 19:33N 37°56' E 023°38'0 0.0
2016-Jun-15 18:33N 37°56' E 023°38'0 0.0
2016-Jun-15 17:33N 37°56' E 023°38'0 0.0
2016-Jun-15 16:33N 37°56' E 023°38'0 0.0
2016-Jun-15 15:33N 37°56' E 023°38'0 0.0
2016-Jun-15 14:33N 37°56' E 023°38'0 0.0
2016-Jun-15 13:33N 37°56' E 023°38'0 0.0
2016-Jun-15 12:33N 37°56' E 023°38'  

Dump ship's entire track history